Time;durP1;ratioP1;P1;durP2;ratioP2;P2;SDS_P1;SDS_P2;PMS_P1;PMS_P2;Temp;Humidity;BMP_temperature;BMP_pressure;BME280_temperature;BME280_humidity;BME280_pressure;Samples;Min_cycle;Max_cycle;Signal;HPM_P1;HPM_P2
2021/12/11 00:01:10;;;;;;;24.83;16.15;;;;;;;;;;4807724;29;20080;-72
2021/12/11 00:03:40;;;;;;;27.50;15.52;;;;;;;;;;4825548;29;20542;-73
2021/12/11 00:06:14;;;;;;;19.83;14.13;;;;;;;;;;4825122;29;20050;-73
2021/12/11 00:08:40;;;;;;;24.33;15.27;;;;;;;;;;4808738;29;20383;-73
2021/12/11 00:11:15;;;;;;;21.67;15.02;;;;;;;;;;4808881;29;20061;-73
2021/12/11 00:13:42;;;;;;;20.92;14.70;;;;;;;;;;4809914;29;20065;-73
2021/12/11 00:16:10;;;;;;;23.05;14.27;;;;;;;;;;4791395;29;20073;-72
2021/12/11 00:18:36;;;;;;;20.58;13.98;;;;;;;;;;4809113;29;20137;-72
2021/12/11 00:21:04;;;;;;;23.27;15.10;;;;;;;;;;4797134;29;20058;-72
2021/12/11 00:23:38;;;;;;;23.15;15.00;;;;;;;;;;4813092;29;20070;-73
2021/12/11 00:26:05;;;;;;;19.38;13.68;;;;;;;;;;4811635;29;20464;-74
2021/12/11 00:28:32;;;;;;;19.23;13.27;;;;;;;;;;4812251;29;20440;-74
2021/12/11 00:30:58;;;;;;;25.95;15.60;;;;;;;;;;4812010;29;20056;-73
2021/12/11 00:33:26;;;;;;;21.35;14.65;;;;;;;;;;4828608;29;20058;-72
2021/12/11 00:35:54;;;;;;;24.40;14.65;;;;;;;;;;4807582;29;20065;-72
2021/12/11 00:38:25;;;;;;;20.73;14.75;;;;;;;;;;4802573;29;20480;-72
2021/12/11 00:40:53;;;;;;;22.13;14.48;;;;;;;;;;4797296;29;20050;-72
2021/12/11 00:43:21;;;;;;;19.98;13.50;;;;;;;;;;4828259;29;20058;-72
2021/12/11 00:45:48;;;;;;;21.92;13.68;;;;;;;;;;4807527;29;20138;-74
2021/12/11 00:48:16;;;;;;;19.83;13.73;;;;;;;;;;4820481;29;20113;-72
2021/12/11 00:50:44;;;;;;;22.42;14.13;;;;;;;;;;4812989;29;20059;-72
2021/12/11 00:53:10;;;;;;;21.30;13.40;;;;;;;;;;4812558;29;20115;-72
2021/12/11 00:55:39;;;;;;;19.58;13.73;;;;;;;;;;4809668;29;20406;-72
2021/12/11 00:58:12;;;;;;;21.42;13.23;;;;;;;;;;4797990;29;20115;-72
2021/12/11 01:00:46;;;;;;;20.77;13.25;;;;;;;;;;4796917;29;20511;-72
2021/12/11 01:03:15;;;;;;;23.83;14.90;;;;;;;;;;4812346;29;20058;-74
2021/12/11 01:05:42;;;;;;;20.33;12.98;;;;;;;;;;4808747;29;20047;-72
2021/12/11 01:08:13;;;;;;;19.38;13.20;;;;;;;;;;4803481;29;20062;-73
2021/12/11 01:10:39;;;;;;;23.67;14.73;;;;;;;;;;4790860;29;20061;-72
2021/12/11 01:13:06;;;;;;;22.33;14.20;;;;;;;;;;4811966;29;20051;-72
2021/12/11 01:15:57;;;;;;;17.77;12.63;;;;;;;;;;4827315;29;20134;-72
2021/12/11 01:18:34;;;;;;;18.52;11.50;;;;;;;;;;4811593;29;20476;-73
2021/12/11 01:21:07;;;;;;;19.02;11.30;;;;;;;;;;4812252;29;20074;-73
2021/12/11 01:26:09;;;;;;;22.40;14.40;;;;;;;;;;4799873;29;20115;-73
2021/12/11 01:28:36;;;;;;;23.50;14.85;;;;;;;;;;4811052;29;20057;-72
2021/12/11 01:31:04;;;;;;;23.15;15.02;;;;;;;;;;4810453;29;20395;-72
2021/12/11 01:33:31;;;;;;;27.88;16.42;;;;;;;;;;4811418;29;20087;-72
2021/12/11 01:35:57;;;;;;;21.88;15.57;;;;;;;;;;4811536;29;20103;-71
2021/12/11 01:38:25;;;;;;;24.27;15.25;;;;;;;;;;4804068;29;20142;-72
2021/12/11 01:40:53;;;;;;;20.60;14.27;;;;;;;;;;4793859;29;20051;-71
2021/12/11 01:43:24;;;;;;;21.88;13.73;;;;;;;;;;4810061;29;20057;-72
2021/12/11 01:45:51;;;;;;;25.75;15.10;;;;;;;;;;4810947;29;20535;-73
2021/12/11 01:48:19;;;;;;;24.85;14.38;;;;;;;;;;4811549;29;20123;-75
2021/12/11 01:50:47;;;;;;;20.55;12.52;;;;;;;;;;4796537;29;20054;-73
2021/12/11 01:53:17;;;;;;;19.25;12.65;;;;;;;;;;4827452;29;20058;-71
2021/12/11 01:55:43;;;;;;;20.60;13.43;;;;;;;;;;4810796;29;20475;-72
2021/12/11 01:58:11;;;;;;;21.45;13.20;;;;;;;;;;4810562;29;20145;-72
2021/12/11 02:00:40;;;;;;;20.80;13.63;;;;;;;;;;4809107;29;20050;-71
2021/12/11 02:03:10;;;;;;;21.95;14.45;;;;;;;;;;4808547;29;20119;-72
2021/12/11 02:05:37;;;;;;;19.65;13.75;;;;;;;;;;4801156;29;20051;-72
2021/12/11 02:08:07;;;;;;;23.25;13.65;;;;;;;;;;4792976;29;20069;-72
2021/12/11 02:10:42;;;;;;;17.27;11.63;;;;;;;;;;4800303;29;20058;-72
2021/12/11 02:13:10;;;;;;;17.60;11.45;;;;;;;;;;4811772;29;20061;-74
2021/12/11 02:15:46;;;;;;;16.20;10.85;;;;;;;;;;4797921;29;20046;-73
2021/12/11 02:18:35;;;;;;;17.75;11.68;;;;;;;;;;4809024;29;20059;-72
2021/12/11 02:21:09;;;;;;;19.33;12.02;;;;;;;;;;4793848;29;20055;-71
2021/12/11 02:23:35;;;;;;;20.25;12.65;;;;;;;;;;4792930;29;20055;-72
2021/12/11 02:26:04;;;;;;;20.90;13.23;;;;;;;;;;4809033;29;20127;-70
2021/12/11 02:28:33;;;;;;;18.15;12.45;;;;;;;;;;4800076;29;20046;-73
2021/12/11 02:31:05;;;;;;;18.88;12.50;;;;;;;;;;4810050;29;20042;-71
2021/12/11 02:33:34;;;;;;;21.33;13.45;;;;;;;;;;4810747;29;20054;-71
2021/12/11 02:36:10;;;;;;;19.73;12.30;;;;;;;;;;4811234;29;20065;-70
2021/12/11 02:38:39;;;;;;;23.17;13.63;;;;;;;;;;4810464;29;20368;-72
2021/12/11 02:41:13;;;;;;;19.92;13.38;;;;;;;;;;4825934;29;20088;-72
2021/12/11 02:43:45;;;;;;;20.30;13.40;;;;;;;;;;4808419;29;20050;-72
2021/12/11 02:46:11;;;;;;;20.10;13.00;;;;;;;;;;4810231;29;20184;-71
2021/12/11 02:48:43;;;;;;;20.40;13.52;;;;;;;;;;4826645;29;20039;-72
2021/12/11 02:51:13;;;;;;;21.00;13.48;;;;;;;;;;4809202;29;20055;-73
2021/12/11 02:53:46;;;;;;;22.10;13.63;;;;;;;;;;4826636;29;20133;-72
2021/12/11 02:56:15;;;;;;;21.63;14.43;;;;;;;;;;4809633;29;20058;-72
2021/12/11 02:58:44;;;;;;;25.58;15.82;;;;;;;;;;4809217;29;20122;-72
2021/12/11 03:01:23;;;;;;;29.15;16.33;;;;;;;;;;4807160;29;20125;-71
2021/12/11 03:03:55;;;;;;;25.45;15.93;;;;;;;;;;4808404;29;20061;-72
2021/12/11 03:06:25;;;;;;;28.15;18.23;;;;;;;;;;4818560;29;20072;-72
2021/12/11 03:08:52;;;;;;;26.55;16.75;;;;;;;;;;4809816;29;20064;-73
2021/12/11 03:11:21;;;;;;;29.85;18.92;;;;;;;;;;4825471;29;20081;-71
2021/12/11 03:13:51;;;;;;;32.80;18.08;;;;;;;;;;4809742;29;20051;-72
2021/12/11 03:16:19;;;;;;;31.23;18.60;;;;;;;;;;4810049;29;20054;-72
2021/12/11 03:18:46;;;;;;;28.98;17.73;;;;;;;;;;4826263;29;20077;-72
2021/12/11 03:21:12;;;;;;;30.40;18.10;;;;;;;;;;4809322;29;20145;-72
2021/12/11 03:23:38;;;;;;;29.45;19.27;;;;;;;;;;4807995;29;20070;-72
2021/12/11 03:26:05;;;;;;;30.70;18.35;;;;;;;;;;4810041;29;20050;-72
2021/12/11 03:28:31;;;;;;;27.83;17.05;;;;;;;;;;4809020;29;20412;-73
2021/12/11 03:30:59;;;;;;;25.25;17.63;;;;;;;;;;4809330;29;20042;-72
2021/12/11 03:33:27;;;;;;;26.90;17.08;;;;;;;;;;4807792;29;20054;-71
2021/12/11 03:35:55;;;;;;;26.88;16.83;;;;;;;;;;4791580;29;20054;-71
2021/12/11 03:38:22;;;;;;;30.50;17.77;;;;;;;;;;4791825;29;20127;-73
2021/12/11 03:40:48;;;;;;;25.80;16.20;;;;;;;;;;4791816;29;20447;-72
2021/12/11 03:43:16;;;;;;;26.15;16.45;;;;;;;;;;4807180;29;20054;-72
2021/12/11 03:45:44;;;;;;;23.45;15.75;;;;;;;;;;4809151;29;20357;-71
2021/12/11 03:48:12;;;;;;;30.83;18.35;;;;;;;;;;4809714;29;20058;-72
2021/12/11 03:50:38;;;;;;;28.13;18.05;;;;;;;;;;4809788;29;20107;-71
2021/12/11 03:53:05;;;;;;;27.15;17.13;;;;;;;;;;4808204;29;20569;-72
2021/12/11 03:55:33;;;;;;;27.55;16.98;;;;;;;;;;4825084;29;20065;-72
2021/12/11 03:58:01;;;;;;;23.45;15.05;;;;;;;;;;4809007;29;20523;-72
2021/12/11 04:00:30;;;;;;;24.67;16.60;;;;;;;;;;4824103;29;20055;-72
2021/12/11 04:03:03;;;;;;;22.45;15.38;;;;;;;;;;4794956;29;20065;-72
2021/12/11 04:05:29;;;;;;;24.23;16.63;;;;;;;;;;4792069;29;20059;-72
2021/12/11 04:07:57;;;;;;;22.83;14.25;;;;;;;;;;4807338;29;20467;-72
2021/12/11 04:10:27;;;;;;;25.85;15.18;;;;;;;;;;4813427;29;20608;-72
2021/12/11 04:12:53;;;;;;;22.50;14.70;;;;;;;;;;4808813;29;20099;-72
2021/12/11 04:15:19;;;;;;;24.77;15.10;;;;;;;;;;4808898;29;20058;-71
2021/12/11 04:17:45;;;;;;;24.67;15.70;;;;;;;;;;4809084;29;20057;-72
2021/12/11 04:20:14;;;;;;;31.02;16.88;;;;;;;;;;4808281;29;20057;-73
2021/12/11 04:22:40;;;;;;;25.50;15.68;;;;;;;;;;4809483;29;20499;-72
2021/12/11 04:25:07;;;;;;;20.23;14.68;;;;;;;;;;4809072;29;20060;-72
2021/12/11 04:27:33;;;;;;;22.70;14.27;;;;;;;;;;4808805;29;20054;-73
2021/12/11 04:30:03;;;;;;;20.55;14.18;;;;;;;;;;4815571;29;20061;-71
2021/12/11 04:32:32;;;;;;;22.42;14.88;;;;;;;;;;4798919;29;20126;-70
2021/12/11 04:34:58;;;;;;;20.55;14.32;;;;;;;;;;4791136;29;20376;-71
2021/12/11 04:37:28;;;;;;;25.30;15.60;;;;;;;;;;4791285;29;20097;-71
2021/12/11 04:39:59;;;;;;;26.92;15.55;;;;;;;;;;4792070;29;20103;-71
2021/12/11 04:44:56;;;;;;;21.20;14.45;;;;;;;;;;4808512;29;20134;-71
2021/12/11 04:47:40;;;;;;;23.17;14.55;;;;;;;;;;4808943;29;20479;-70
2021/12/11 04:50:13;;;;;;;23.10;15.40;;;;;;;;;;4808206;29;20051;-72
2021/12/11 04:52:56;;;;;;;23.55;15.00;;;;;;;;;;4824320;29;20093;-72
2021/12/11 04:58:08;;;;;;;23.20;14.05;;;;;;;;;;4808924;29;20054;-72
2021/12/11 05:06:28;;;;;;;29.83;17.08;;;;;;;;;;4826167;29;20145;-73
2021/12/11 05:11:42;;;;;;;24.75;15.65;;;;;;;;;;4811167;29;20349;-72
2021/12/11 05:14:09;;;;;;;23.50;15.75;;;;;;;;;;4812602;29;20446;-73
2021/12/11 05:16:37;;;;;;;22.48;15.32;;;;;;;;;;4812420;29;20111;-72
2021/12/11 05:19:04;;;;;;;23.48;15.95;;;;;;;;;;4811854;29;20069;-71
2021/12/11 05:21:31;;;;;;;24.30;15.45;;;;;;;;;;4804982;29;20062;-72
2021/12/11 05:23:57;;;;;;;27.48;15.82;;;;;;;;;;4794166;29;20063;-72
2021/12/11 05:26:23;;;;;;;25.75;15.35;;;;;;;;;;4793544;29;20062;-71
2021/12/11 05:28:50;;;;;;;23.23;15.57;;;;;;;;;;4822367;29;20123;-70
2021/12/11 05:31:16;;;;;;;27.27;16.02;;;;;;;;;;4826252;29;20125;-71
2021/12/11 05:33:43;;;;;;;25.50;15.95;;;;;;;;;;4827510;29;20403;-72
2021/12/11 05:36:10;;;;;;;27.25;17.35;;;;;;;;;;4827632;29;20054;-72
2021/12/11 05:38:39;;;;;;;25.50;16.15;;;;;;;;;;4811797;29;20349;-71
2021/12/11 05:41:07;;;;;;;24.85;15.30;;;;;;;;;;4817514;29;20126;-73
2021/12/11 05:43:34;;;;;;;25.80;15.48;;;;;;;;;;4793742;29;20058;-72
2021/12/11 05:46:00;;;;;;;23.48;15.15;;;;;;;;;;4793828;29;20043;-71
2021/12/11 05:48:27;;;;;;;25.38;15.25;;;;;;;;;;4779850;29;20070;-72
2021/12/11 05:50:56;;;;;;;24.25;14.82;;;;;;;;;;4809964;29;20492;-72
2021/12/11 05:53:23;;;;;;;23.40;14.98;;;;;;;;;;4811007;29;20057;-72
2021/12/11 05:55:50;;;;;;;23.67;14.43;;;;;;;;;;4826894;29;20054;-72
2021/12/11 05:58:27;;;;;;;22.35;14.35;;;;;;;;;;4810769;29;20064;-72
2021/12/11 06:00:54;;;;;;;23.33;14.80;;;;;;;;;;4809735;29;20073;-73
2021/12/11 06:03:20;;;;;;;25.50;15.43;;;;;;;;;;4827378;29;20050;-73
2021/12/11 06:05:46;;;;;;;25.67;15.52;;;;;;;;;;4811336;29;20356;-73
2021/12/11 06:08:13;;;;;;;26.27;15.85;;;;;;;;;;4806700;29;20414;-73
2021/12/11 06:10:41;;;;;;;28.70;16.75;;;;;;;;;;4797504;29;20051;-71
2021/12/11 06:13:08;;;;;;;25.95;15.63;;;;;;;;;;4778340;29;20073;-71
2021/12/11 06:15:35;;;;;;;26.92;17.40;;;;;;;;;;4792765;29;20055;-72
2021/12/11 06:18:02;;;;;;;28.70;17.67;;;;;;;;;;4811095;29;20054;-72
2021/12/11 06:20:29;;;;;;;33.30;18.95;;;;;;;;;;4823855;29;20076;-72
2021/12/11 06:22:56;;;;;;;27.33;17.60;;;;;;;;;;4810669;29;20380;-71
2021/12/11 06:25:27;;;;;;;28.52;18.25;;;;;;;;;;4811292;29;20050;-72
2021/12/11 06:27:53;;;;;;;28.30;17.85;;;;;;;;;;4811245;29;20058;-71
2021/12/11 06:30:21;;;;;;;29.83;18.55;;;;;;;;;;4810285;29;20420;-73
2021/12/11 06:32:48;;;;;;;28.27;17.77;;;;;;;;;;4809962;29;20050;-72
2021/12/11 06:35:17;;;;;;;30.08;19.55;;;;;;;;;;4810644;29;20072;-73
2021/12/11 06:37:43;;;;;;;30.38;18.08;;;;;;;;;;4810556;29;20084;-73
2021/12/11 06:40:10;;;;;;;33.38;20.15;;;;;;;;;;4811179;29;20066;-73
2021/12/11 06:42:36;;;;;;;30.63;18.90;;;;;;;;;;4810874;29;20058;-73
2021/12/11 06:45:02;;;;;;;30.83;19.60;;;;;;;;;;4826983;29;20061;-73
2021/12/11 06:47:28;;;;;;;29.27;18.50;;;;;;;;;;4825932;29;20058;-72
2021/12/11 06:49:54;;;;;;;30.95;18.17;;;;;;;;;;4826457;29;20463;-72
2021/12/11 06:52:22;;;;;;;32.88;19.85;;;;;;;;;;4809911;29;20117;-72
2021/12/11 06:54:48;;;;;;;31.08;18.25;;;;;;;;;;4795427;29;20054;-70
2021/12/11 06:57:15;;;;;;;30.40;17.95;;;;;;;;;;4810828;29;20046;-71
2021/12/11 06:59:41;;;;;;;29.50;18.33;;;;;;;;;;4809807;29;20050;-74
2021/12/11 07:02:07;;;;;;;30.45;18.58;;;;;;;;;;4810531;29;20068;-73
2021/12/11 07:04:34;;;;;;;30.05;18.65;;;;;;;;;;4808143;29;20066;-71
2021/12/11 07:07:00;;;;;;;30.25;18.00;;;;;;;;;;4826308;29;20062;-72
2021/12/11 07:09:28;;;;;;;29.35;17.75;;;;;;;;;;4826105;29;20076;-72
2021/12/11 07:11:55;;;;;;;27.15;17.98;;;;;;;;;;4810292;29;20460;-72
2021/12/11 07:14:22;;;;;;;28.77;17.65;;;;;;;;;;4809995;29;20499;-71
2021/12/11 07:16:49;;;;;;;35.90;18.48;;;;;;;;;;4809927;29;20054;-73
2021/12/11 07:19:15;;;;;;;32.83;18.73;;;;;;;;;;4810247;29;20486;-72
2021/12/11 07:21:42;;;;;;;27.52;17.77;;;;;;;;;;4808934;29;20098;-74
2021/12/11 07:24:10;;;;;;;25.83;17.17;;;;;;;;;;4809190;29;20057;-74
2021/12/11 07:26:36;;;;;;;27.80;17.35;;;;;;;;;;4791717;29;20400;-74
2021/12/11 07:29:08;;;;;;;27.58;17.63;;;;;;;;;;4797726;29;20057;-75
2021/12/11 07:31:34;;;;;;;28.27;17.55;;;;;;;;;;4809605;29;20129;-76
2021/12/11 07:34:00;;;;;;;29.27;17.80;;;;;;;;;;4795724;29;20084;-74
2021/12/11 07:36:27;;;;;;;25.88;17.33;;;;;;;;;;4809142;29;20054;-74
2021/12/11 07:38:53;;;;;;;27.77;16.30;;;;;;;;;;4826067;29;20122;-76
2021/12/11 07:41:21;;;;;;;29.80;18.20;;;;;;;;;;4794480;29;20054;-76
2021/12/11 07:43:47;;;;;;;26.98;16.80;;;;;;;;;;4814799;29;20055;-75
2021/12/11 07:46:15;;;;;;;27.42;17.30;;;;;;;;;;4791649;29;20058;-75
2021/12/11 07:48:42;;;;;;;28.77;17.50;;;;;;;;;;4776716;29;20054;-75
2021/12/11 07:51:09;;;;;;;27.50;17.02;;;;;;;;;;4794917;29;20190;-76
2021/12/11 07:53:35;;;;;;;30.48;18.90;;;;;;;;;;4809142;29;20395;-76
2021/12/11 07:56:02;;;;;;;28.65;19.35;;;;;;;;;;4809628;29;20137;-74
2021/12/11 07:58:33;;;;;;;32.05;19.70;;;;;;;;;;4794045;29;20054;-76
2021/12/11 08:01:00;;;;;;;28.90;17.77;;;;;;;;;;4825708;29;20101;-75
2021/12/11 08:03:26;;;;;;;30.65;20.10;;;;;;;;;;4809429;29;20133;-73
2021/12/11 08:05:52;;;;;;;31.48;19.15;;;;;;;;;;4808599;29;20522;-76
2021/12/11 08:08:19;;;;;;;30.98;20.13;;;;;;;;;;4809221;29;20431;-74
2021/12/11 08:10:47;;;;;;;31.80;19.90;;;;;;;;;;4809598;29;20154;-77
2021/12/11 08:13:13;;;;;;;32.15;19.52;;;;;;;;;;4825020;29;20053;-76
2021/12/11 08:15:40;;;;;;;30.10;19.05;;;;;;;;;;4825492;29;20129;-73
2021/12/11 08:18:07;;;;;;;34.35;20.05;;;;;;;;;;4824528;29;20046;-74
2021/12/11 08:20:36;;;;;;;33.95;20.92;;;;;;;;;;4825055;29;20042;-75
2021/12/11 08:23:02;;;;;;;36.25;21.42;;;;;;;;;;4820883;29;20062;-72
2021/12/11 08:25:29;;;;;;;32.53;19.45;;;;;;;;;;4825461;29;20050;-77
2021/12/11 08:27:56;;;;;;;33.97;20.42;;;;;;;;;;4808351;29;20054;-74
2021/12/11 08:30:23;;;;;;;41.03;21.13;;;;;;;;;;4820091;29;20031;-77
2021/12/11 08:32:50;;;;;;;32.28;20.42;;;;;;;;;;4810417;29;20072;-77
2021/12/11 08:35:16;;;;;;;37.25;20.80;;;;;;;;;;4824641;29;20042;-75
2021/12/11 08:37:44;;;;;;;36.38;21.05;;;;;;;;;;4809127;29;20114;-76
2021/12/11 08:40:12;;;;;;;37.22;21.45;;;;;;;;;;4825631;29;20051;-76
2021/12/11 08:42:38;;;;;;;34.67;19.65;;;;;;;;;;4812500;29;20436;-76
2021/12/11 08:45:10;;;;;;;34.08;20.98;;;;;;;;;;4812406;29;20070;-79
2021/12/11 08:47:39;;;;;;;40.10;22.75;;;;;;;;;;4828575;29;20054;-84
2021/12/11 08:50:06;;;;;;;34.63;21.35;;;;;;;;;;4827795;29;20129;-74
2021/12/11 08:52:36;;;;;;;34.17;21.77;;;;;;;;;;4812099;29;20061;-74
2021/12/11 08:55:03;;;;;;;33.70;20.20;;;;;;;;;;4826978;29;20065;-73
2021/12/11 08:57:31;;;;;;;34.17;21.27;;;;;;;;;;4827980;29;20100;-73
2021/12/11 08:59:59;;;;;;;31.67;19.38;;;;;;;;;;4827843;29;20058;-76
2021/12/11 09:02:27;;;;;;;33.70;21.48;;;;;;;;;;4812071;29;20055;-73
2021/12/11 09:04:56;;;;;;;36.28;20.55;;;;;;;;;;4811973;29;20196;-75
2021/12/11 09:07:30;;;;;;;33.00;19.98;;;;;;;;;;4811039;29;20455;-74
2021/12/11 09:09:59;;;;;;;31.38;19.55;;;;;;;;;;4811881;29;20062;-73
2021/12/11 09:12:25;;;;;;;30.42;19.80;;;;;;;;;;4812052;29;20046;-74
2021/12/11 09:15:00;;;;;;;30.38;18.33;;;;;;;;;;4827805;29;20137;-73
2021/12/11 09:17:29;;;;;;;35.75;19.48;;;;;;;;;;4812392;29;20050;-73
2021/12/11 09:19:55;;;;;;;28.98;19.33;;;;;;;;;;4816304;29;20050;-73
2021/12/11 09:22:27;;;;;;;28.88;19.42;;;;;;;;;;4807049;29;20042;-72
2021/12/11 09:24:56;;;;;;;31.23;18.42;;;;;;;;;;4827849;29;20065;-75
2021/12/11 09:27:26;;;;;;;29.60;17.65;;;;;;;;;;4827816;29;20066;-75
2021/12/11 09:29:57;;;;;;;27.50;17.38;;;;;;;;;;4811249;29;20425;-84
2021/12/11 09:32:23;;;;;;;27.55;18.65;;;;;;;;;;4823029;29;20078;-75
2021/12/11 09:34:52;;;;;;;28.02;17.92;;;;;;;;;;4806824;29;20493;-74
2021/12/11 09:37:19;;;;;;;28.17;17.45;;;;;;;;;;4806895;29;20088;-75
2021/12/11 09:39:48;;;;;;;25.48;16.98;;;;;;;;;;4811482;29;20086;-76
2021/12/11 09:42:14;;;;;;;23.70;16.00;;;;;;;;;;4827474;29;20058;-74
2021/12/11 09:45:13;;;;;;;23.67;15.88;;;;;;;;;;4812069;29;20068;-75
2021/12/11 09:47:41;;;;;;;23.17;15.55;;;;;;;;;;4791039;29;20070;-74
2021/12/11 09:50:15;;;;;;;23.85;15.55;;;;;;;;;;4810081;29;20436;-74
2021/12/11 09:52:45;;;;;;;23.77;15.98;;;;;;;;;;4809046;29;20062;-76
2021/12/11 09:55:25;;;;;;;25.35;16.88;;;;;;;;;;4784683;29;20111;-75
2021/12/11 09:57:54;;;;;;;24.10;16.88;;;;;;;;;;4824455;29;20472;-75
2021/12/11 10:00:22;;;;;;;23.88;15.40;;;;;;;;;;4825805;29;20050;-74
2021/12/11 10:02:49;;;;;;;23.85;15.85;;;;;;;;;;4810859;29;20119;-76
2021/12/11 10:05:31;;;;;;;23.40;15.50;;;;;;;;;;4810741;29;20050;-74
2021/12/11 10:11:11;;;;;;;22.05;15.35;;;;;;;;;;4825900;29;20073;-74
2021/12/11 10:13:40;;;;;;;21.13;14.73;;;;;;;;;;4811149;29;20133;-74
2021/12/11 10:16:06;;;;;;;23.27;14.73;;;;;;;;;;4827196;29;20522;-73
2021/12/11 10:18:33;;;;;;;25.38;14.85;;;;;;;;;;4810446;29;20463;-74
2021/12/11 10:21:02;;;;;;;20.48;14.85;;;;;;;;;;4823012;29;20120;-73
2021/12/11 10:23:30;;;;;;;22.60;15.45;;;;;;;;;;4820033;29;20119;-75
2021/12/11 10:25:58;;;;;;;21.42;14.73;;;;;;;;;;4808547;29;20103;-74
2021/12/11 10:28:27;;;;;;;20.58;14.82;;;;;;;;;;4823168;29;20058;-74
2021/12/11 10:30:57;;;;;;;22.27;15.45;;;;;;;;;;4824716;29;20061;-75
2021/12/11 10:33:25;;;;;;;23.10;16.58;;;;;;;;;;4826882;29;20058;-75
2021/12/11 10:35:53;;;;;;;22.80;14.75;;;;;;;;;;4792267;29;20115;-73
2021/12/11 10:38:20;;;;;;;23.38;16.70;;;;;;;;;;4810315;29;20062;-73
2021/12/11 10:40:49;;;;;;;22.98;16.08;;;;;;;;;;4825949;29;20110;-73
2021/12/11 10:43:21;;;;;;;23.48;16.73;;;;;;;;;;4792609;29;20123;-73
2021/12/11 10:45:48;;;;;;;21.60;16.08;;;;;;;;;;4817803;29;20131;-74
2021/12/11 10:48:17;;;;;;;24.90;17.45;;;;;;;;;;4826651;29;20138;-73
2021/12/11 10:50:45;;;;;;;21.33;15.20;;;;;;;;;;4795609;29;20050;-73
2021/12/11 10:53:13;;;;;;;21.75;15.80;;;;;;;;;;4810412;29;20050;-74
2021/12/11 10:55:40;;;;;;;24.23;18.70;;;;;;;;;;4810618;29;20054;-79
2021/12/11 10:58:09;;;;;;;27.15;18.52;;;;;;;;;;4794385;29;20050;-72
2021/12/11 11:00:41;;;;;;;23.65;16.92;;;;;;;;;;4806982;29;20065;-73
2021/12/11 11:03:07;;;;;;;22.98;16.58;;;;;;;;;;4807758;29;20055;-72
2021/12/11 11:05:34;;;;;;;25.13;15.82;;;;;;;;;;4815274;29;20215;-74
2021/12/11 11:08:00;;;;;;;24.73;17.02;;;;;;;;;;4807249;29;20046;-76
2021/12/11 11:10:31;;;;;;;23.00;16.80;;;;;;;;;;4826085;29;20062;-75
2021/12/11 11:12:58;;;;;;;23.35;16.25;;;;;;;;;;4823163;29;20399;-73
2021/12/11 11:15:25;;;;;;;26.38;16.15;;;;;;;;;;4777193;29;20544;-72
2021/12/11 11:17:51;;;;;;;25.60;16.80;;;;;;;;;;4807795;29;20074;-72
2021/12/11 11:20:20;;;;;;;24.15;16.13;;;;;;;;;;4792570;29;20107;-73
2021/12/11 11:22:47;;;;;;;20.85;15.50;;;;;;;;;;4794880;29;20046;-73
2021/12/11 11:25:21;;;;;;;23.45;16.30;;;;;;;;;;4825948;29;20046;-73
2021/12/11 11:27:48;;;;;;;23.67;16.40;;;;;;;;;;4808915;29;20387;-73
2021/12/11 11:30:17;;;;;;;23.40;16.23;;;;;;;;;;4819663;29;20058;-73
2021/12/11 11:32:43;;;;;;;27.42;18.17;;;;;;;;;;4825571;29;20130;-72
2021/12/11 11:35:15;;;;;;;24.48;16.75;;;;;;;;;;4809877;29;20050;-73
2021/12/11 11:37:42;;;;;;;27.65;17.90;;;;;;;;;;4808155;29;20050;-73
2021/12/11 11:40:10;;;;;;;26.00;18.60;;;;;;;;;;4809761;29;20054;-72
2021/12/11 11:42:37;;;;;;;27.17;18.92;;;;;;;;;;4809611;29;20050;-73
2021/12/11 11:45:05;;;;;;;30.85;18.20;;;;;;;;;;4809676;29;20133;-73
2021/12/11 11:47:32;;;;;;;29.30;19.30;;;;;;;;;;4808615;29;20082;-72
2021/12/11 11:49:59;;;;;;;27.65;18.95;;;;;;;;;;4794604;29;20065;-73
2021/12/11 11:52:27;;;;;;;30.77;19.67;;;;;;;;;;4819518;29;20085;-75
2021/12/11 11:54:54;;;;;;;29.50;20.02;;;;;;;;;;4824826;29;20436;-78
2021/12/11 11:57:24;;;;;;;28.63;18.63;;;;;;;;;;4808768;29;20137;-77
2021/12/11 11:59:52;;;;;;;29.23;20.58;;;;;;;;;;4808812;29;20544;-78
2021/12/11 12:02:20;;;;;;;27.95;18.90;;;;;;;;;;4823673;29;20061;-77
2021/12/11 12:04:48;;;;;;;27.75;18.20;;;;;;;;;;4808384;29;20065;-75
2021/12/11 12:07:15;;;;;;;26.98;18.02;;;;;;;;;;4821612;29;20062;-77
2021/12/11 12:09:44;;;;;;;28.25;18.10;;;;;;;;;;4821992;29;20480;-77
2021/12/11 12:12:12;;;;;;;29.95;19.20;;;;;;;;;;4822398;29;20544;-76
2021/12/11 12:14:39;;;;;;;30.38;19.92;;;;;;;;;;4812422;29;20122;-76
2021/12/11 12:17:06;;;;;;;31.80;19.08;;;;;;;;;;4817440;29;20042;-76
2021/12/11 12:19:33;;;;;;;29.40;18.35;;;;;;;;;;4825089;29;20137;-77
2021/12/11 12:22:03;;;;;;;25.30;17.55;;;;;;;;;;4790651;29;20066;-75
2021/12/11 12:24:31;;;;;;;28.92;18.05;;;;;;;;;;4795004;29;20486;-77
2021/12/11 12:26:58;;;;;;;28.83;16.88;;;;;;;;;;4821164;29;20352;-76
2021/12/11 12:29:24;;;;;;;26.63;16.58;;;;;;;;;;4824195;29;20053;-76
2021/12/11 12:31:53;;;;;;;32.20;17.67;;;;;;;;;;4809781;29;20642;-76
2021/12/11 12:34:20;;;;;;;31.08;17.73;;;;;;;;;;4810492;29;20114;-76
2021/12/11 12:36:46;;;;;;;29.58;19.45;;;;;;;;;;4823671;29;20111;-76
2021/12/11 12:39:13;;;;;;;28.23;17.23;;;;;;;;;;4806572;29;20091;-76
2021/12/11 12:41:45;;;;;;;25.65;17.25;;;;;;;;;;4823640;29;20057;-77
2021/12/11 12:44:17;;;;;;;28.73;19.13;;;;;;;;;;4823944;29;20051;-76
2021/12/11 12:46:46;;;;;;;24.88;15.82;;;;;;;;;;4794132;29;20054;-76
2021/12/11 12:49:12;;;;;;;25.73;16.02;;;;;;;;;;4825290;29;20055;-76
2021/12/11 12:51:38;;;;;;;25.73;15.55;;;;;;;;;;4807900;29;20502;-76
2021/12/11 12:54:07;;;;;;;27.45;16.38;;;;;;;;;;4823412;29;20050;-76
2021/12/11 12:56:35;;;;;;;23.50;15.50;;;;;;;;;;4807238;29;20057;-77
2021/12/11 12:59:13;;;;;;;27.77;16.88;;;;;;;;;;4794768;29;20119;-76
2021/12/11 13:01:42;;;;;;;26.05;16.33;;;;;;;;;;4816850;29;20043;-76
2021/12/11 13:04:10;;;;;;;23.50;15.30;;;;;;;;;;4823565;29;20042;-77
2021/12/11 13:06:39;;;;;;;25.88;16.10;;;;;;;;;;4793226;29;20452;-75
2021/12/11 13:09:26;;;;;;;25.83;15.77;;;;;;;;;;4823589;29;20058;-76
2021/12/11 13:12:01;;;;;;;24.10;14.10;;;;;;;;;;4823450;29;20062;-76
2021/12/11 13:14:28;;;;;;;28.20;14.38;;;;;;;;;;4825041;29;20456;-75
2021/12/11 13:16:57;;;;;;;25.35;13.52;;;;;;;;;;4823623;29;20437;-75
2021/12/11 13:19:26;;;;;;;29.35;15.20;;;;;;;;;;4824888;29;20093;-77
2021/12/11 13:21:54;;;;;;;25.13;14.07;;;;;;;;;;4823731;29;20489;-76
2021/12/11 13:24:21;;;;;;;25.40;14.32;;;;;;;;;;4823256;29;20049;-77
2021/12/11 13:26:49;;;;;;;25.85;14.27;;;;;;;;;;4823561;29;20137;-76
2021/12/11 13:29:17;;;;;;;27.23;14.30;;;;;;;;;;4825175;29;20042;-76
2021/12/11 13:31:45;;;;;;;25.83;13.82;;;;;;;;;;4811074;29;20543;-75
2021/12/11 13:34:12;;;;;;;22.98;14.63;;;;;;;;;;4826968;29;20054;-76
2021/12/11 13:36:39;;;;;;;23.70;13.02;;;;;;;;;;4826950;29;20073;-76
2021/12/11 13:39:07;;;;;;;24.08;13.15;;;;;;;;;;4810610;29;20047;-77
2021/12/11 13:41:35;;;;;;;23.13;12.65;;;;;;;;;;4826133;29;20054;-76
2021/12/11 13:44:01;;;;;;;23.48;13.50;;;;;;;;;;4811140;29;20042;-76
2021/12/11 13:46:29;;;;;;;26.00;13.50;;;;;;;;;;4810981;29;20153;-76
2021/12/11 13:48:55;;;;;;;22.05;12.80;;;;;;;;;;4811076;29;20132;-75
2021/12/11 13:51:26;;;;;;;25.25;12.82;;;;;;;;;;4826407;29;20051;-76
2021/12/11 13:53:54;;;;;;;24.50;13.00;;;;;;;;;;4824907;29;20058;-76
2021/12/11 13:56:22;;;;;;;22.10;12.75;;;;;;;;;;4826345;29;20110;-76
2021/12/11 13:58:48;;;;;;;27.63;14.10;;;;;;;;;;4826917;29;20539;-76
2021/12/11 14:01:17;;;;;;;26.45;14.57;;;;;;;;;;4826391;29;20133;-75
2021/12/11 14:03:44;;;;;;;25.45;12.95;;;;;;;;;;4825262;29;20369;-76
2021/12/11 14:06:12;;;;;;;23.98;13.15;;;;;;;;;;4796393;29;20126;-77
2021/12/11 14:08:39;;;;;;;23.15;12.95;;;;;;;;;;4801036;29;20054;-76
2021/12/11 14:11:07;;;;;;;24.90;13.52;;;;;;;;;;4825664;29;20066;-76
2021/12/11 14:13:33;;;;;;;21.90;12.32;;;;;;;;;;4827097;29;20050;-77
2021/12/11 14:16:00;;;;;;;22.95;13.60;;;;;;;;;;4824793;29;20129;-76
2021/12/11 14:18:26;;;;;;;20.73;12.73;;;;;;;;;;4826712;29;20062;-75
2021/12/11 14:20:52;;;;;;;22.20;12.90;;;;;;;;;;4826379;29;20115;-77
2021/12/11 14:23:20;;;;;;;26.10;13.75;;;;;;;;;;4826215;29;20058;-76
2021/12/11 14:25:48;;;;;;;21.30;13.35;;;;;;;;;;4805333;29;20050;-77
2021/12/11 14:28:17;;;;;;;28.17;13.32;;;;;;;;;;4825226;29;20062;-76
2021/12/11 14:30:45;;;;;;;25.67;13.68;;;;;;;;;;4810494;29;20142;-76
2021/12/11 14:33:11;;;;;;;24.25;14.30;;;;;;;;;;4809140;29;20090;-76
2021/12/11 14:35:38;;;;;;;23.95;13.95;;;;;;;;;;4821396;29;20062;-76
2021/12/11 14:38:06;;;;;;;25.40;12.23;;;;;;;;;;4779643;29;21634;-76
2021/12/11 14:40:34;;;;;;;21.90;12.65;;;;;;;;;;4808282;29;20062;-75
2021/12/11 14:43:00;;;;;;;22.42;12.38;;;;;;;;;;4784424;29;20054;-76